Air Navigation Services of Czech Republic
Airport: LKMT Updated:  20.01.2017 20:06:13  UTC
 METAR LKMT 20.01. 20:00 ...
METAR LKMT 202000Z 23009KT 8000 BKN018 OVC024 M03/M07 Q1034 R04/850195 NOSIG RMK REG QNH 1028=
 TAF LKMT 20.01. 17:00 ...
TAF LKMT 201700Z 2018/2200 23008KT 7000 BKN036      TEMPO 2018/2115 SCT036      TEMPO 2103/2108 3000 BR      BECMG 2115/2118 VRB02KT SCT036=